createdAt,value
2023-12-09T00:00:50.334Z,-2.01
2023-12-09T00:03:17.773Z,-2.03
2023-12-09T00:05:45.393Z,-2.03
2023-12-09T00:08:13.225Z,-2.00
2023-12-09T00:11:27.853Z,-1.97
2023-12-09T00:13:55.946Z,-1.95
2023-12-09T00:16:23.572Z,-1.91
2023-12-09T00:18:51.076Z,-1.89
2023-12-09T00:21:18.759Z,-1.91
2023-12-09T00:23:47.859Z,-1.95
2023-12-09T00:26:16.178Z,-1.99
2023-12-09T00:28:43.543Z,-2.00
2023-12-09T00:31:10.991Z,-2.02
2023-12-09T00:33:38.489Z,-2.03
2023-12-09T00:36:06.240Z,-2.04
2023-12-09T00:38:33.796Z,-2.04
2023-12-09T00:41:01.152Z,-2.02
2023-12-09T00:43:28.530Z,-2.00
2023-12-09T00:45:55.897Z,-1.97
2023-12-09T00:48:23.685Z,-1.94
2023-12-09T00:50:51.228Z,-1.89
2023-12-09T00:53:18.754Z,-1.85
2023-12-09T00:55:46.324Z,-1.80
2023-12-09T00:58:13.679Z,-1.80
2023-12-09T01:00:41.128Z,-1.79
2023-12-09T01:03:08.564Z,-1.80
2023-12-09T01:05:36.041Z,-1.82
2023-12-09T01:08:03.522Z,-1.87
2023-12-09T01:10:30.913Z,-1.92
2023-12-09T01:12:58.248Z,-1.97
2023-12-09T01:15:25.746Z,-2.01
2023-12-09T01:17:53.258Z,-2.04
2023-12-09T01:20:20.781Z,-2.02
2023-12-09T01:22:48.265Z,-2.00
2023-12-09T01:25:15.839Z,-1.97
2023-12-09T01:27:43.229Z,-1.93
2023-12-09T01:30:11.010Z,-1.88
2023-12-09T01:32:38.451Z,-1.85
2023-12-09T01:35:06.532Z,-1.82
2023-12-09T01:37:33.955Z,-1.79
2023-12-09T01:40:01.292Z,-1.78
2023-12-09T01:42:29.109Z,-1.78
2023-12-09T01:44:56.862Z,-1.80
2023-12-09T01:47:24.483Z,-1.85
2023-12-09T01:49:51.966Z,-1.88
2023-12-09T01:52:19.540Z,-1.91
2023-12-09T01:54:47.097Z,-1.91
2023-12-09T01:57:14.503Z,-1.92
2023-12-09T01:59:41.891Z,-1.94
2023-12-09T02:02:09.420Z,-1.95
2023-12-09T02:04:36.863Z,-1.93
2023-12-09T02:07:04.467Z,-1.91
2023-12-09T02:09:33.284Z,-1.88
2023-12-09T02:12:12.150Z,-1.85
2023-12-09T02:14:42.651Z,-1.83
2023-12-09T02:17:22.613Z,-1.83
2023-12-09T02:19:50.057Z,-1.86
2023-12-09T02:22:17.508Z,-1.88
2023-12-09T02:24:44.942Z,-1.90
2023-12-09T02:27:14.077Z,-1.92
2023-12-09T02:30:03.678Z,-1.95
2023-12-09T02:32:32.411Z,-1.98
2023-12-09T02:34:59.936Z,-1.99
2023-12-09T02:37:28.050Z,-2.01
2023-12-09T02:39:55.507Z,-2.00
2023-12-09T02:42:22.913Z,-1.98
2023-12-09T02:44:50.450Z,-1.96
2023-12-09T02:47:18.046Z,-1.94
2023-12-09T02:49:45.938Z,-1.90
2023-12-09T02:52:13.574Z,-1.85
2023-12-09T02:54:41.169Z,-1.81
2023-12-09T02:57:08.597Z,-1.76
2023-12-09T02:59:36.257Z,-1.75
2023-12-09T03:02:03.839Z,-1.76
2023-12-09T03:04:32.455Z,-1.78
2023-12-09T03:06:59.808Z,-1.81
2023-12-09T03:09:27.265Z,-1.87
2023-12-09T03:11:54.686Z,-1.90
2023-12-09T03:14:23.778Z,-1.93
2023-12-09T03:16:51.223Z,-1.98
2023-12-09T03:19:18.679Z,-2.00
2023-12-09T03:21:46.090Z,-2.01
2023-12-09T03:24:13.588Z,-2.03
2023-12-09T03:26:41.016Z,-2.02
2023-12-09T03:29:08.385Z,-2.02
2023-12-09T03:31:35.749Z,-2.00
2023-12-09T03:34:03.268Z,-1.97
2023-12-09T03:36:30.788Z,-1.93
2023-12-09T03:38:58.187Z,-1.94
2023-12-09T03:41:26.331Z,-1.96
2023-12-09T03:43:53.808Z,-1.99
2023-12-09T03:46:21.206Z,-2.01
2023-12-09T03:48:48.883Z,-2.04
2023-12-09T03:51:16.409Z,-2.08
2023-12-09T03:53:44.261Z,-2.11
2023-12-09T03:56:14.476Z,-2.12
2023-12-09T03:58:41.805Z,-2.11
2023-12-09T04:01:09.300Z,-2.11
2023-12-09T04:03:36.876Z,-2.11
2023-12-09T04:06:06.586Z,-2.09
2023-12-09T04:08:34.105Z,-2.07
2023-12-09T04:11:01.503Z,-2.04
2023-12-09T04:13:28.816Z,-2.03
2023-12-09T04:15:56.237Z,-2.04
2023-12-09T04:18:23.772Z,-2.05
2023-12-09T04:20:51.342Z,-2.04
2023-12-09T04:23:20.001Z,-2.06
2023-12-09T04:25:47.347Z,-2.07
2023-12-09T04:28:14.768Z,-2.08
2023-12-09T04:30:42.412Z,-2.10
2023-12-09T04:33:09.903Z,-2.12
2023-12-09T04:35:37.523Z,-2.13
2023-12-09T04:38:05.239Z,-2.15
2023-12-09T04:40:32.613Z,-2.15
2023-12-09T04:43:00.001Z,-2.14
2023-12-09T04:45:27.442Z,-2.11
2023-12-09T04:47:55.119Z,-2.09
2023-12-09T04:50:22.682Z,-2.07
2023-12-09T04:52:50.141Z,-2.05
2023-12-09T04:55:17.566Z,-2.03
2023-12-09T04:57:44.920Z,-2.01
2023-12-09T05:00:12.987Z,-2.00
2023-12-09T05:02:40.518Z,-2.01
2023-12-09T05:05:07.943Z,-2.03
2023-12-09T05:07:35.477Z,-2.07
2023-12-09T05:10:03.530Z,-2.10
2023-12-09T05:12:31.375Z,-2.13
2023-12-09T05:15:00.742Z,-2.14
2023-12-09T05:17:28.344Z,-2.15
2023-12-09T05:19:55.796Z,-2.14
2023-12-09T05:22:23.169Z,-2.12
2023-12-09T05:24:52.070Z,-2.11
2023-12-09T05:27:19.493Z,-2.11
2023-12-09T05:29:46.911Z,-2.08
2023-12-09T05:32:14.365Z,-2.05
2023-12-09T05:34:41.913Z,-2.03
2023-12-09T05:37:09.527Z,-2.01
2023-12-09T05:39:36.935Z,-2.00
2023-12-09T05:42:05.929Z,-2.00
2023-12-09T05:44:33.476Z,-2.00
2023-12-09T05:47:00.900Z,-2.00
2023-12-09T05:49:28.329Z,-2.00
2023-12-09T05:51:55.855Z,-2.01
2023-12-09T05:54:23.302Z,-2.02
2023-12-09T05:56:51.329Z,-2.02
2023-12-09T05:59:18.718Z,-2.01
2023-12-09T06:01:46.228Z,-2.00
2023-12-09T06:04:13.774Z,-1.97
2023-12-09T06:06:41.259Z,-1.94
2023-12-09T06:09:10.411Z,-1.92
2023-12-09T06:11:37.849Z,-1.92
2023-12-09T06:14:05.245Z,-1.90
2023-12-09T06:16:32.681Z,-1.87
2023-12-09T06:19:00.052Z,-1.86
2023-12-09T06:21:27.489Z,-1.86
2023-12-09T06:23:54.914Z,-1.85
2023-12-09T06:26:22.370Z,-1.85
2023-12-09T06:28:49.841Z,-1.84
2023-12-09T06:31:17.331Z,-1.85
2023-12-09T06:33:45.020Z,-1.94
2023-12-09T06:36:12.689Z,-2.04
2023-12-09T06:38:41.200Z,-2.07
2023-12-09T06:41:09.037Z,-2.08
2023-12-09T06:43:36.562Z,-2.07
2023-12-09T06:46:04.211Z,-2.04
2023-12-09T06:48:31.765Z,-2.03
2023-12-09T06:50:59.296Z,-2.04
2023-12-09T06:53:26.701Z,-2.04
2023-12-09T06:55:54.134Z,-2.05
2023-12-09T06:58:21.611Z,-2.03
2023-12-09T07:00:49.385Z,-1.99
2023-12-09T07:03:17.033Z,-1.94
2023-12-09T07:05:44.674Z,-1.88
2023-12-09T07:08:12.262Z,-1.84
2023-12-09T07:10:39.705Z,-1.81
2023-12-09T07:13:07.275Z,-1.78
2023-12-09T07:15:34.747Z,-1.76
2023-12-09T07:18:02.392Z,-1.76
2023-12-09T07:20:29.951Z,-1.75
2023-12-09T07:22:57.374Z,-1.73
2023-12-09T07:25:24.980Z,-1.72
2023-12-09T07:27:52.447Z,-1.69
2023-12-09T07:30:22.167Z,-1.69
2023-12-09T07:32:49.683Z,-1.67
2023-12-09T07:35:18.307Z,-1.63
2023-12-09T07:37:48.055Z,-1.57
2023-12-09T07:40:17.297Z,-1.52
2023-12-09T07:42:45.160Z,-1.47
2023-12-09T07:45:14.165Z,-1.41
2023-12-09T07:47:41.803Z,-1.38
2023-12-09T07:50:10.031Z,-1.36
2023-12-09T07:52:37.429Z,-1.36
2023-12-09T07:55:06.034Z,-1.41
2023-12-09T07:57:33.599Z,-1.43
2023-12-09T08:00:01.259Z,-1.44
2023-12-09T08:02:29.087Z,-1.46
2023-12-09T08:04:56.950Z,-1.49
2023-12-09T08:07:24.468Z,-1.49
2023-12-09T08:09:52.013Z,-1.50
2023-12-09T08:12:19.374Z,-1.52
2023-12-09T08:14:46.805Z,-1.53
2023-12-09T08:17:14.233Z,-1.50
2023-12-09T08:19:41.710Z,-1.45
2023-12-09T08:22:09.248Z,-1.42
2023-12-09T08:24:36.669Z,-1.38
2023-12-09T08:27:04.719Z,-1.34
2023-12-09T08:29:32.079Z,-1.34
2023-12-09T08:31:59.572Z,-1.33
2023-12-09T08:34:27.131Z,-1.35
2023-12-09T08:36:54.654Z,-1.35
2023-12-09T08:39:23.688Z,-1.35
2023-12-09T08:41:51.515Z,-1.34
2023-12-09T08:44:19.125Z,-1.29
2023-12-09T08:46:46.586Z,-1.26
2023-12-09T08:49:13.993Z,-1.22
2023-12-09T08:51:48.250Z,-1.18
2023-12-09T08:54:16.119Z,-1.12
2023-12-09T08:56:43.600Z,-1.07
2023-12-09T08:59:12.205Z,-1.03
2023-12-09T09:01:39.830Z,-1.01
2023-12-09T09:04:07.469Z,-1.00
2023-12-09T09:06:35.245Z,-1.01
2023-12-09T09:09:02.788Z,-1.01
2023-12-09T09:11:30.237Z,-1.02
2023-12-09T09:13:57.598Z,-1.02
2023-12-09T09:16:24.958Z,-1.00
2023-12-09T09:18:52.484Z,-0.98
2023-12-09T09:21:20.030Z,-0.94
2023-12-09T09:23:47.587Z,-0.91
2023-12-09T09:26:15.120Z,-0.87
2023-12-09T09:28:42.568Z,-0.86
2023-12-09T09:31:12.936Z,-0.84
2023-12-09T09:33:42.548Z,-0.85
2023-12-09T09:36:10.513Z,-0.85
2023-12-09T09:38:39.482Z,-0.86
2023-12-09T09:41:08.572Z,-0.88
2023-12-09T09:43:38.188Z,-0.90
2023-12-09T09:46:08.386Z,-0.89
2023-12-09T09:48:38.087Z,-0.90
2023-12-09T09:51:07.028Z,-0.91
2023-12-09T09:53:42.609Z,-0.89
2023-12-09T09:56:10.932Z,-0.84
2023-12-09T09:58:38.303Z,-0.80
2023-12-09T10:01:05.957Z,-0.75
2023-12-09T10:03:33.500Z,-0.70
2023-12-09T10:06:00.986Z,-0.67
2023-12-09T10:08:30.562Z,-0.63
2023-12-09T10:10:57.970Z,-0.60
2023-12-09T10:13:25.310Z,-0.61
2023-12-09T10:15:52.699Z,-0.60
2023-12-09T10:18:22.091Z,-0.60
2023-12-09T10:20:51.103Z,-0.61
2023-12-09T10:23:20.600Z,-0.65
2023-12-09T10:25:49.194Z,-0.68
2023-12-09T10:28:16.588Z,-0.70
2023-12-09T10:30:44.989Z,-0.71
2023-12-09T10:33:12.840Z,-0.72
2023-12-09T10:35:40.440Z,-0.73
2023-12-09T10:38:07.928Z,-0.73
2023-12-09T10:40:35.631Z,-0.72
2023-12-09T10:43:06.518Z,-0.69
2023-12-09T10:45:34.157Z,-0.65
2023-12-09T10:48:01.802Z,-0.63
2023-12-09T10:50:29.775Z,-0.61
2023-12-09T10:52:58.155Z,-0.60
2023-12-09T10:55:25.529Z,-0.60
2023-12-09T10:57:53.026Z,-0.58
2023-12-09T11:00:20.559Z,-0.57
2023-12-09T11:02:48.064Z,-0.57
2023-12-09T11:05:16.377Z,-0.60
2023-12-09T11:07:45.496Z,-0.62
2023-12-09T11:10:13.074Z,-0.64
2023-12-09T11:12:42.489Z,-0.66
2023-12-09T11:15:17.100Z,-0.69
2023-12-09T11:17:54.446Z,-0.70
2023-12-09T11:20:23.186Z,-0.73
2023-12-09T11:22:50.728Z,-0.77
2023-12-09T11:25:23.061Z,-0.80
2023-12-09T11:27:52.164Z,-0.83
2023-12-09T11:30:32.933Z,-0.88
2023-12-09T11:33:00.570Z,-0.88
2023-12-09T11:35:28.390Z,-0.85
2023-12-09T11:37:56.337Z,-0.82
2023-12-09T11:40:23.791Z,-0.78
2023-12-09T11:42:51.260Z,-0.78
2023-12-09T11:45:18.726Z,-0.83
2023-12-09T11:47:47.022Z,-0.83
2023-12-09T11:50:18.189Z,-0.81
2023-12-09T11:52:45.948Z,-0.81
2023-12-09T11:55:15.968Z,-0.86
2023-12-09T11:57:43.328Z,-0.97
2023-12-09T12:00:14.944Z,-1.03
2023-12-09T12:02:45.409Z,-1.03
2023-12-09T12:05:13.099Z,-1.00
2023-12-09T12:07:40.880Z,-1.00
2023-12-09T12:10:09.189Z,-0.96
2023-12-09T12:12:37.210Z,-0.91
2023-12-09T12:15:06.199Z,-0.87
2023-12-09T12:17:41.133Z,-0.84
2023-12-09T12:20:11.036Z,-0.82
2023-12-09T12:22:40.371Z,-0.83
2023-12-09T12:25:09.628Z,-0.84
2023-12-09T12:29:09.039Z,-0.86
2023-12-09T12:31:36.637Z,-0.88
2023-12-09T12:34:20.341Z,-0.89
2023-12-09T12:36:48.043Z,-0.92
2023-12-09T12:39:15.981Z,-0.94
2023-12-09T12:41:43.494Z,-0.96
2023-12-09T12:44:12.258Z,-0.98
2023-12-09T12:46:39.690Z,-0.98
2023-12-09T12:49:07.242Z,-0.97
2023-12-09T12:51:34.959Z,-0.96
2023-12-09T12:54:03.005Z,-0.94
2023-12-09T12:56:30.564Z,-0.93
2023-12-09T12:58:58.071Z,-0.92
2023-12-09T13:01:25.542Z,-0.93
2023-12-09T13:03:53.102Z,-0.94
2023-12-09T13:06:20.957Z,-0.95
2023-12-09T13:08:49.034Z,-0.96
2023-12-09T13:11:16.542Z,-0.98
2023-12-09T13:13:43.972Z,-1.01
2023-12-09T13:16:11.978Z,-1.04
2023-12-09T13:18:39.581Z,-1.08
2023-12-09T13:21:07.337Z,-1.12
2023-12-09T13:23:34.907Z,-1.15
2023-12-09T13:26:03.523Z,-1.18
2023-12-09T13:28:30.978Z,-1.19
2023-12-09T13:30:58.372Z,-1.20
2023-12-09T13:33:26.068Z,-1.18
2023-12-09T13:35:53.758Z,-1.16
2023-12-09T13:38:21.209Z,-1.14
2023-12-09T13:40:48.970Z,-1.13
2023-12-09T13:43:16.445Z,-1.13
2023-12-09T13:45:44.388Z,-1.15
2023-12-09T13:48:12.770Z,-1.17
2023-12-09T13:50:40.989Z,-1.21
2023-12-09T13:53:08.727Z,-1.23
2023-12-09T13:55:36.200Z,-1.27
2023-12-09T13:58:05.151Z,-1.30
2023-12-09T14:00:32.694Z,-1.34
2023-12-09T14:03:00.405Z,-1.41
2023-12-09T14:05:28.261Z,-1.49
2023-12-09T14:07:55.828Z,-1.54
2023-12-09T14:10:23.827Z,-1.54
2023-12-09T14:12:51.377Z,-1.53
2023-12-09T14:15:19.272Z,-1.50
2023-12-09T14:17:47.653Z,-1.49
2023-12-09T14:20:17.171Z,-1.47
2023-12-09T14:22:47.197Z,-1.46
2023-12-09T14:25:14.845Z,-1.45
2023-12-09T14:27:42.360Z,-1.43
2023-12-09T14:30:12.678Z,-1.42
2023-12-09T14:32:45.156Z,-1.43
2023-12-09T14:35:13.471Z,-1.45
2023-12-09T14:37:42.173Z,-1.47
2023-12-09T14:40:10.104Z,-1.50
2023-12-09T14:42:37.745Z,-1.54
2023-12-09T14:45:06.079Z,-1.59
2023-12-09T14:47:33.815Z,-1.61
2023-12-09T14:50:01.440Z,-1.63
2023-12-09T14:52:29.292Z,-1.65
2023-12-09T14:54:57.995Z,-1.64
2023-12-09T14:57:25.583Z,-1.65
2023-12-09T14:59:53.051Z,-1.63
2023-12-09T15:02:20.483Z,-1.61
2023-12-09T15:04:48.545Z,-1.59
2023-12-09T15:07:16.032Z,-1.59
2023-12-09T15:09:43.690Z,-1.60
2023-12-09T15:12:11.279Z,-1.60
2023-12-09T15:14:38.733Z,-1.62
2023-12-09T15:17:07.078Z,-1.64
2023-12-09T15:19:34.577Z,-1.67
2023-12-09T15:22:02.108Z,-1.70
2023-12-09T15:24:29.622Z,-1.74
2023-12-09T15:26:57.260Z,-1.77
2023-12-09T15:29:25.005Z,-1.82
2023-12-09T15:31:52.932Z,-1.84
2023-12-09T15:34:20.914Z,-1.85
2023-12-09T15:36:48.482Z,-1.85
2023-12-09T15:39:17.546Z,-1.83
2023-12-09T15:41:45.183Z,-1.81
2023-12-09T15:44:12.794Z,-1.83
2023-12-09T15:46:40.831Z,-1.83
2023-12-09T15:49:08.455Z,-1.85
2023-12-09T15:51:36.181Z,-1.88
2023-12-09T15:54:04.147Z,-1.90
2023-12-09T15:56:31.669Z,-1.93
2023-12-09T15:58:59.094Z,-1.98
2023-12-09T16:01:26.649Z,-2.02
2023-12-09T16:03:54.293Z,-2.05
2023-12-09T16:06:21.954Z,-2.07
2023-12-09T16:08:49.497Z,-2.11
2023-12-09T16:11:17.012Z,-2.11
2023-12-09T16:13:44.536Z,-2.10
2023-12-09T16:16:11.973Z,-2.10
2023-12-09T16:18:40.339Z,-2.09
2023-12-09T16:21:08.649Z,-2.07
2023-12-09T16:23:37.081Z,-2.06
2023-12-09T16:26:05.770Z,-2.04
2023-12-09T16:28:33.286Z,-2.02
2023-12-09T16:31:00.935Z,-2.01
2023-12-09T16:33:28.627Z,-2.00
2023-12-09T16:35:56.136Z,-1.98
2023-12-09T16:38:23.625Z,-1.99
2023-12-09T16:40:51.073Z,-2.00
2023-12-09T16:43:18.694Z,-2.03
2023-12-09T16:45:46.218Z,-2.06
2023-12-09T16:48:14.008Z,-2.07
2023-12-09T16:50:41.635Z,-2.08
2023-12-09T16:53:09.500Z,-2.08
2023-12-09T16:55:37.156Z,-2.07
2023-12-09T16:58:05.082Z,-2.05
2023-12-09T17:00:34.622Z,-2.02
2023-12-09T17:03:02.614Z,-2.01
2023-12-09T17:05:30.111Z,-2.00
2023-12-09T17:07:57.590Z,-2.01
2023-12-09T17:10:25.040Z,-2.02
2023-12-09T17:12:53.619Z,-2.05
2023-12-09T17:15:21.306Z,-2.07
2023-12-09T17:17:49.093Z,-2.10
2023-12-09T17:20:17.194Z,-2.12
2023-12-09T17:22:44.841Z,-2.14
2023-12-09T17:25:12.453Z,-2.17
2023-12-09T17:27:40.061Z,-2.18
2023-12-09T17:30:08.464Z,-2.18
2023-12-09T17:32:36.060Z,-2.18
2023-12-09T17:35:03.666Z,-2.17
2023-12-09T17:37:31.177Z,-2.15
2023-12-09T17:39:58.633Z,-2.13
2023-12-09T17:42:26.360Z,-2.10
2023-12-09T17:44:54.395Z,-2.08
2023-12-09T17:47:21.873Z,-2.09
2023-12-09T17:49:49.426Z,-2.09
2023-12-09T17:52:17.806Z,-2.09
2023-12-09T17:54:45.322Z,-2.10
2023-12-09T17:57:13.078Z,-2.12
2023-12-09T17:59:40.865Z,-2.15
2023-12-09T18:02:08.957Z,-2.18
2023-12-09T18:04:36.710Z,-2.21
2023-12-09T18:07:04.508Z,-2.23
2023-12-09T18:09:32.478Z,-2.26
2023-12-09T18:12:00.003Z,-2.27
2023-12-09T18:14:27.506Z,-2.28
2023-12-09T18:16:54.998Z,-2.27
2023-12-09T18:19:22.676Z,-2.25
2023-12-09T18:21:50.396Z,-2.24
2023-12-09T18:24:20.263Z,-2.22
2023-12-09T18:26:48.309Z,-2.20
2023-12-09T18:29:15.894Z,-2.18
2023-12-09T18:31:45.059Z,-2.18
2023-12-09T18:34:13.033Z,-2.17
2023-12-09T18:36:41.180Z,-2.17
2023-12-09T18:39:09.147Z,-2.18
2023-12-09T18:41:37.735Z,-2.20
2023-12-09T18:44:06.253Z,-2.22
2023-12-09T18:46:33.768Z,-2.25
2023-12-09T18:49:01.522Z,-2.28
2023-12-09T18:51:29.273Z,-2.32
2023-12-09T18:53:56.715Z,-2.34
2023-12-09T18:56:24.506Z,-2.35
2023-12-09T18:58:52.004Z,-2.35
2023-12-09T19:01:19.654Z,-2.34
2023-12-09T19:03:47.281Z,-2.33
2023-12-09T19:06:14.976Z,-2.31
2023-12-09T19:08:43.453Z,-2.28
2023-12-09T19:11:10.952Z,-2.26
2023-12-09T19:13:38.592Z,-2.25
2023-12-09T19:16:06.791Z,-2.23
2023-12-09T19:18:34.679Z,-2.22
2023-12-09T19:21:04.674Z,-2.22
2023-12-09T19:23:32.278Z,-2.23
2023-12-09T19:25:59.738Z,-2.25
2023-12-09T19:28:27.287Z,-2.26
2023-12-09T19:30:55.156Z,-2.30
2023-12-09T19:33:22.769Z,-2.31
2023-12-09T19:35:50.402Z,-2.33
2023-12-09T19:38:17.885Z,-2.35
2023-12-09T19:40:45.340Z,-2.36
2023-12-09T19:43:12.911Z,-2.36
2023-12-09T19:45:40.410Z,-2.35
2023-12-09T19:48:08.135Z,-2.33
2023-12-09T19:50:35.744Z,-2.32
2023-12-09T19:53:05.137Z,-2.29
2023-12-09T19:55:32.599Z,-2.28
2023-12-09T19:58:02.189Z,-2.27
2023-12-09T20:00:29.817Z,-2.26
2023-12-09T20:02:59.577Z,-2.26
2023-12-09T20:05:27.775Z,-2.27
2023-12-09T20:07:55.294Z,-2.28
2023-12-09T20:10:22.850Z,-2.29
2023-12-09T20:12:51.812Z,-2.31
2023-12-09T20:15:19.520Z,-2.34
2023-12-09T20:17:47.147Z,-2.36
2023-12-09T20:20:14.700Z,-2.39
2023-12-09T20:22:42.318Z,-2.42
2023-12-09T20:25:09.922Z,-2.44
2023-12-09T20:27:37.798Z,-2.44
2023-12-09T20:30:06.024Z,-2.44
2023-12-09T20:32:33.750Z,-2.45
2023-12-09T20:35:01.449Z,-2.43
2023-12-09T20:37:28.883Z,-2.39
2023-12-09T20:39:58.447Z,-2.36
2023-12-09T20:42:26.198Z,-2.35
2023-12-09T20:44:54.016Z,-2.35
2023-12-09T20:47:21.457Z,-2.36
2023-12-09T20:49:48.983Z,-2.36
2023-12-09T20:52:17.325Z,-2.38
2023-12-09T20:54:47.809Z,-2.42
2023-12-09T20:57:15.634Z,-2.46
2023-12-09T20:59:44.072Z,-2.49
2023-12-09T21:02:11.575Z,-2.51
2023-12-09T21:04:44.399Z,-2.52
2023-12-09T21:07:12.081Z,-2.52
2023-12-09T21:09:41.155Z,-2.51
2023-12-09T21:12:09.222Z,-2.50
2023-12-09T21:14:36.853Z,-2.46
2023-12-09T21:17:04.520Z,-2.43
2023-12-09T21:19:35.782Z,-2.43
2023-12-09T21:22:04.135Z,-2.42
2023-12-09T21:24:32.065Z,-2.41
2023-12-09T21:26:59.553Z,-2.43
2023-12-09T21:29:27.509Z,-2.44
2023-12-09T21:31:55.408Z,-2.45
2023-12-09T21:34:22.925Z,-2.46
2023-12-09T21:36:50.550Z,-2.48
2023-12-09T21:39:18.183Z,-2.51
2023-12-09T21:41:45.633Z,-2.53
2023-12-09T21:44:13.145Z,-2.56
2023-12-09T21:46:40.938Z,-2.57
2023-12-09T21:49:08.588Z,-2.57
2023-12-09T21:51:40.637Z,-2.55
2023-12-09T21:54:08.618Z,-2.53
2023-12-09T21:56:36.237Z,-2.50
2023-12-09T21:59:03.761Z,-2.47
2023-12-09T22:01:31.495Z,-2.45
2023-12-09T22:03:59.157Z,-2.44
2023-12-09T22:06:26.880Z,-2.44
2023-12-09T22:08:55.443Z,-2.43
2023-12-09T22:11:22.877Z,-2.44
2023-12-09T22:13:50.331Z,-2.46
2023-12-09T22:16:23.857Z,-2.47
2023-12-09T22:18:51.500Z,-2.50
2023-12-09T22:21:19.206Z,-2.54
2023-12-09T22:23:46.915Z,-2.56
2023-12-09T22:26:14.609Z,-2.58
2023-12-09T22:28:42.804Z,-2.58
2023-12-09T22:31:10.328Z,-2.57
2023-12-09T22:33:38.182Z,-2.56
2023-12-09T22:36:06.224Z,-2.54
2023-12-09T22:38:33.663Z,-2.53
2023-12-09T22:41:01.180Z,-2.52
2023-12-09T22:43:28.716Z,-2.50
2023-12-09T22:45:56.507Z,-2.48
2023-12-09T22:48:24.237Z,-2.46
2023-12-09T22:50:54.634Z,-2.45
2023-12-09T22:53:22.429Z,-2.45
2023-12-09T22:55:49.869Z,-2.47
2023-12-09T22:58:17.383Z,-2.49
2023-12-09T23:00:45.009Z,-2.52
2023-12-09T23:03:12.781Z,-2.55
2023-12-09T23:05:40.346Z,-2.58
2023-12-09T23:08:07.963Z,-2.60
2023-12-09T23:10:35.444Z,-2.60
2023-12-09T23:13:02.984Z,-2.60
2023-12-09T23:15:30.473Z,-2.60
2023-12-09T23:17:57.960Z,-2.58
2023-12-09T23:20:25.484Z,-2.56
2023-12-09T23:22:53.011Z,-2.53
2023-12-09T23:25:20.462Z,-2.50
2023-12-09T23:27:47.982Z,-2.49
2023-12-09T23:30:15.606Z,-2.47
2023-12-09T23:32:43.250Z,-2.47
2023-12-09T23:35:10.735Z,-2.48
2023-12-09T23:37:38.193Z,-2.52
2023-12-09T23:40:06.171Z,-2.55
2023-12-09T23:42:34.021Z,-2.58
2023-12-09T23:45:01.640Z,-2.62
2023-12-09T23:47:29.165Z,-2.65
2023-12-09T23:49:56.734Z,-2.67
2023-12-09T23:52:24.154Z,-2.68
2023-12-09T23:54:51.689Z,-2.68
2023-12-09T23:57:19.274Z,-2.65
2023-12-09T23:59:46.791Z,-2.62
